createdAt,value
2022-11-30T00:13:01.769Z,85.9
2022-11-30T00:28:11.397Z,85.9
2022-11-30T00:43:20.904Z,85.9
2022-11-30T00:58:35.388Z,86.2
2022-11-30T01:13:44.962Z,86
2022-11-30T01:28:54.309Z,86
2022-11-30T01:44:06.323Z,86
2022-11-30T01:59:16.227Z,86
2022-11-30T02:14:25.862Z,86
2022-11-30T02:29:35.113Z,86.1
2022-11-30T02:44:49.294Z,86.1
2022-11-30T02:59:59.595Z,86.2
2022-11-30T03:15:09.285Z,86.6
2022-11-30T03:30:19.475Z,86.2
2022-11-30T03:45:34.987Z,86.3
2022-11-30T04:00:44.784Z,86.4
2022-11-30T04:15:55.154Z,86.4
2022-11-30T04:31:06.229Z,85.9
2022-11-30T04:46:16.316Z,86
2022-11-30T05:01:26.460Z,86.4
2022-11-30T05:16:38.840Z,86.9
2022-11-30T05:31:49.274Z,86.4
2022-11-30T05:46:59.031Z,86.5
2022-11-30T06:02:09.367Z,86.5
2022-11-30T06:17:19.212Z,86.5
2022-11-30T06:32:28.732Z,86.6
2022-11-30T06:47:38.248Z,86.6
2022-11-30T07:02:49.163Z,86.5
2022-11-30T07:17:58.688Z,86.5
2022-11-30T07:33:08.308Z,86.4
2022-11-30T07:48:17.907Z,86.5
2022-11-30T08:03:28.014Z,86.9
2022-11-30T08:18:39.081Z,86.5
2022-11-30T08:33:48.271Z,86.5
2022-11-30T08:49:24.889Z,86.5
2022-11-30T09:04:35.601Z,86.5
2022-11-30T09:19:45.530Z,86.5
2022-11-30T09:34:55.019Z,86.4
2022-11-30T09:50:03.988Z,86.7
2022-11-30T10:05:22.531Z,86.3
2022-11-30T10:20:32.355Z,86.4
2022-11-30T10:35:42.042Z,86.4
2022-11-30T10:50:51.742Z,86.3
2022-11-30T11:06:01.654Z,86.4
2022-11-30T11:21:11.222Z,86.4
2022-11-30T11:36:20.584Z,86.4
2022-11-30T11:51:30.138Z,86.5
2022-11-30T12:06:39.581Z,86.4
2022-11-30T12:21:49.262Z,86.4
2022-11-30T12:36:58.348Z,86.5
2022-11-30T12:52:10.295Z,86.6
2022-11-30T13:07:20.164Z,86.7
2022-11-30T13:22:28.834Z,86.8
2022-11-30T13:37:38.336Z,86.8
2022-11-30T13:52:51.359Z,86.9
2022-11-30T14:08:01.697Z,87
2022-11-30T14:23:11.240Z,87.1
2022-11-30T14:38:22.587Z,87.1
2022-11-30T14:53:31.743Z,87.2
2022-11-30T15:08:41.619Z,87.3
2022-11-30T15:23:54.130Z,87.2
2022-11-30T15:39:06.968Z,87.3
2022-11-30T15:54:16.341Z,87.3
2022-11-30T16:09:28.241Z,87.3
2022-11-30T16:24:37.965Z,87.3
2022-11-30T16:39:51.262Z,87.4
2022-11-30T16:55:01.195Z,87.4
2022-11-30T17:10:10.842Z,87.4
2022-11-30T17:25:19.954Z,87.4
2022-11-30T17:40:29.366Z,87.4
2022-11-30T17:55:38.434Z,87.5
2022-11-30T18:10:47.678Z,87.1
2022-11-30T18:25:57.259Z,87.6
2022-11-30T18:41:09.148Z,88.1
2022-11-30T18:56:18.720Z,87.1
2022-11-30T19:11:31.194Z,87.7
2022-11-30T19:26:40.733Z,87.6
2022-11-30T19:41:50.398Z,87.6
2022-11-30T19:56:59.735Z,87.9
2022-11-30T20:12:09.213Z,87.8
2022-11-30T20:27:18.432Z,87.7
2022-11-30T20:42:27.791Z,88.5
2022-11-30T20:57:37.289Z,87.7
2022-11-30T21:12:46.807Z,87.7
2022-11-30T21:27:56.088Z,87.5
2022-11-30T21:43:05.393Z,87.8
2022-11-30T21:58:15.009Z,87.8
2022-11-30T22:13:24.663Z,88.4
2022-11-30T22:28:34.247Z,87.9
2022-11-30T22:43:43.586Z,87.9
2022-11-30T22:58:52.963Z,87.9
2022-11-30T23:14:01.855Z,87.9
2022-11-30T23:29:10.702Z,88
2022-11-30T23:44:20.440Z,88
2022-11-30T23:59:29.983Z,88
